sensor_id;sensor_type;location;lat;lon;timestamp;pressure;altitude;pressure_sealevel;temperature;humidity
69624;BME280;56843;52.020;5.670;2023-02-02T00:00:55;101865.34;;;11.57;64.65
69624;BME280;56843;52.020;5.670;2023-02-02T00:02:26;101863.44;;;11.58;64.56
69624;BME280;56843;52.020;5.670;2023-02-02T00:03:57;101862.38;;;11.59;64.67
69624;BME280;56843;52.020;5.670;2023-02-02T00:05:28;101862.38;;;11.59;64.58
69624;BME280;56843;52.020;5.670;2023-02-02T00:06:59;101870.41;;;11.59;64.65
69624;BME280;56843;52.020;5.670;2023-02-02T00:08:30;101863.16;;;11.59;64.79
69624;BME280;56843;52.020;5.670;2023-02-02T00:10:00;101868.22;;;11.61;64.54
69624;BME280;56843;52.020;5.670;2023-02-02T00:11:31;101870.88;;;11.61;64.64
69624;BME280;56843;52.020;5.670;2023-02-02T00:13:01;101877.03;;;11.61;64.76
69624;BME280;56843;52.020;5.670;2023-02-02T00:14:32;101853.75;;;11.62;64.62
69624;BME280;56843;52.020;5.670;2023-02-02T00:17:57;101864.72;;;11.60;64.65
69624;BME280;56843;52.020;5.670;2023-02-02T00:19:29;101859.38;;;11.60;65.13
69624;BME280;56843;52.020;5.670;2023-02-02T00:21:00;101869.00;;;11.61;64.72
69624;BME280;56843;52.020;5.670;2023-02-02T00:22:31;101863.66;;;11.61;65.16
69624;BME280;56843;52.020;5.670;2023-02-02T00:24:01;101861.78;;;11.62;65.15
69624;BME280;56843;52.020;5.670;2023-02-02T00:25:32;101861.78;;;11.62;64.83
69624;BME280;56843;52.020;5.670;2023-02-02T00:27:02;101867.91;;;11.62;65.21
69624;BME280;56843;52.020;5.670;2023-02-02T00:28:33;101860.66;;;11.63;65.18
69624;BME280;56843;52.020;5.670;2023-02-02T00:30:04;101859.59;;;11.64;65.33
69624;BME280;56843;52.020;5.670;2023-02-02T00:31:35;101859.59;;;11.64;65.09
69624;BME280;56843;52.020;5.670;2023-02-02T00:33:05;101862.75;;;11.66;65.34
69624;BME280;56843;52.020;5.670;2023-02-02T00:34:36;101865.41;;;11.66;65.25
69624;BME280;56843;52.020;5.670;2023-02-02T00:36:09;101868.88;;;11.66;65.13
69624;BME280;56843;52.020;5.670;2023-02-02T00:37:39;101873.44;;;11.66;65.55
69624;BME280;56843;52.020;5.670;2023-02-02T00:39:14;101865.91;;;11.68;65.38
69624;BME280;56843;52.020;5.670;2023-02-02T00:40:45;101865.41;;;11.66;65.56
69624;BME280;56843;52.020;5.670;2023-02-02T00:42:15;101870.47;;;11.67;65.47
69624;BME280;56843;52.020;5.670;2023-02-02T00:43:46;101875.00;;;11.67;65.60
69624;BME280;56843;52.020;5.670;2023-02-02T00:45:37;101875.81;;;11.67;65.48
69624;BME280;56843;52.020;5.670;2023-02-02T00:47:07;101879.28;;;11.68;65.63
69624;BME280;56843;52.020;5.670;2023-02-02T00:48:38;101867.47;;;11.69;65.63
69624;BME280;56843;52.020;5.670;2023-02-02T00:50:10;101863.72;;;11.70;65.65
69624;BME280;56843;52.020;5.670;2023-02-02T00:51:42;101867.19;;;11.70;65.86
69624;BME280;56843;52.020;5.670;2023-02-02T00:53:13;101872.22;;;11.72;65.70
69624;BME280;56843;52.020;5.670;2023-02-02T00:54:43;101870.34;;;11.72;65.71
69624;BME280;56843;52.020;5.670;2023-02-02T00:56:14;101868.47;;;11.73;65.56
69624;BME280;56843;52.020;5.670;2023-02-02T00:57:44;101871.16;;;11.73;65.82
69624;BME280;56843;52.020;5.670;2023-02-02T00:59:15;101876.97;;;11.75;65.92
69624;BME280;56843;52.020;5.670;2023-02-02T01:00:45;101877.75;;;11.75;66.08
69624;BME280;56843;52.020;5.670;2023-02-02T01:02:17;101875.88;;;11.76;65.81
69624;BME280;56843;52.020;5.670;2023-02-02T01:03:50;101866.75;;;11.77;65.97
69624;BME280;56843;52.020;5.670;2023-02-02T01:05:21;101883.91;;;11.76;66.03
69624;BME280;56843;52.020;5.670;2023-02-02T01:06:52;101874.78;;;11.77;66.06
69624;BME280;56843;52.020;5.670;2023-02-02T01:08:22;101883.31;;;11.79;66.00
69624;BME280;56843;52.020;5.670;2023-02-02T01:09:53;101877.16;;;11.78;65.78
69624;BME280;56843;52.020;5.670;2023-02-02T01:11:23;101875.56;;;11.77;65.73
69624;BME280;56843;52.020;5.670;2023-02-02T01:12:55;101874.47;;;11.78;65.83
69624;BME280;56843;52.020;5.670;2023-02-02T01:14:25;101881.72;;;11.78;66.04
69624;BME280;56843;52.020;5.670;2023-02-02T01:15:57;101884.09;;;11.79;65.89
69624;BME280;56843;52.020;5.670;2023-02-02T01:17:29;101885.66;;;11.80;65.68
69624;BME280;56843;52.020;5.670;2023-02-02T01:18:59;101880.63;;;11.79;66.00
69624;BME280;56843;52.020;5.670;2023-02-02T01:20:30;101872.28;;;11.80;66.00
69624;BME280;56843;52.020;5.670;2023-02-02T01:22:01;101883.78;;;11.81;65.89
69624;BME280;56843;52.020;5.670;2023-02-02T01:23:33;101883.78;;;11.81;65.87
69624;BME280;56843;52.020;5.670;2023-02-02T01:25:04;101882.69;;;11.82;65.68
69624;BME280;56843;52.020;5.670;2023-02-02T01:26:34;101883.47;;;11.82;66.19
69624;BME280;56843;52.020;5.670;2023-02-02T01:28:05;101880.78;;;11.82;65.77
69624;BME280;56843;52.020;5.670;2023-02-02T01:29:35;101880.00;;;11.82;66.20
69624;BME280;56843;52.020;5.670;2023-02-02T01:31:11;101883.19;;;11.84;66.14
69624;BME280;56843;52.020;5.670;2023-02-02T01:32:42;101886.94;;;11.83;66.03
69624;BME280;56843;52.020;5.670;2023-02-02T01:34:12;101882.88;;;11.86;66.15
69624;BME280;56843;52.020;5.670;2023-02-02T01:35:47;101883.69;;;11.86;66.21
69624;BME280;56843;52.020;5.670;2023-02-02T01:37:19;101891.72;;;11.86;65.99
69624;BME280;56843;52.020;5.670;2023-02-02T01:38:51;101896.75;;;11.88;65.85
69624;BME280;56843;52.020;5.670;2023-02-02T01:40:21;101893.28;;;11.87;65.98
69624;BME280;56843;52.020;5.670;2023-02-02T01:41:52;101892.47;;;11.87;66.07
69624;BME280;56843;52.020;5.670;2023-02-02T01:43:29;101897.53;;;11.88;66.16
69624;BME280;56843;52.020;5.670;2023-02-02T01:46:35;101892.47;;;11.87;66.29
69624;BME280;56843;52.020;5.670;2023-02-02T01:48:06;101894.88;;;11.88;65.93
69624;BME280;56843;52.020;5.670;2023-02-02T01:49:37;101900.22;;;11.88;66.28
69624;BME280;56843;52.020;5.670;2023-02-02T01:51:14;101896.16;;;11.91;66.20
69624;BME280;56843;52.020;5.670;2023-02-02T01:52:47;101905.25;;;11.90;66.28
69624;BME280;56843;52.020;5.670;2023-02-02T01:54:30;101893.16;;;11.92;66.11
69624;BME280;56843;52.020;5.670;2023-02-02T01:56:04;101898.31;;;11.89;66.27
69624;BME280;56843;52.020;5.670;2023-02-02T01:57:40;101896.44;;;11.89;66.14
69624;BME280;56843;52.020;5.670;2023-02-02T01:59:13;101905.25;;;11.90;66.38
69624;BME280;56843;52.020;5.670;2023-02-02T02:03:24;101906.47;;;11.84;66.12
69624;BME280;56843;52.020;5.670;2023-02-02T02:04:55;101911.22;;;11.87;66.44
69624;BME280;56843;52.020;5.670;2023-02-02T02:06:27;101905.09;;;11.86;66.16
69624;BME280;56843;52.020;5.670;2023-02-02T02:08:08;101905.56;;;11.88;66.04
69624;BME280;56843;52.020;5.670;2023-02-02T02:09:40;101911.53;;;11.85;66.30
69624;BME280;56843;52.020;5.670;2023-02-02T02:11:10;101901.63;;;11.86;65.98
69624;BME280;56843;52.020;5.670;2023-02-02T02:12:40;101902.69;;;11.85;66.21
69624;BME280;56843;52.020;5.670;2023-02-02T02:14:12;101904.28;;;11.86;65.99
69624;BME280;56843;52.020;5.670;2023-02-02T02:16:18;101897.34;;;11.85;66.23
69624;BME280;56843;52.020;5.670;2023-02-02T02:18:15;101903.00;;;11.83;66.22
69624;BME280;56843;52.020;5.670;2023-02-02T02:30:38;101893.03;;;11.75;66.51
69624;BME280;56843;52.020;5.670;2023-02-02T02:32:34;101890.06;;;11.76;66.23
69624;BME280;56843;52.020;5.670;2023-02-02T02:34:21;101890.06;;;11.76;66.20
69624;BME280;56843;52.020;5.670;2023-02-02T02:36:08;101890.38;;;11.75;66.14
69624;BME280;56843;52.020;5.670;2023-02-02T02:39:38;101886.56;;;11.76;66.31
69624;BME280;56843;52.020;5.670;2023-02-02T02:41:21;101879.84;;;11.78;66.37
69624;BME280;56843;52.020;5.670;2023-02-02T02:42:58;101886.78;;;11.79;66.57
69624;BME280;56843;52.020;5.670;2023-02-02T02:44:30;101884.88;;;11.80;66.23
69624;BME280;56843;52.020;5.670;2023-02-02T02:46:02;101884.59;;;11.82;66.66
69624;BME280;56843;52.020;5.670;2023-02-02T02:47:35;101886.16;;;11.82;66.56
69624;BME280;56843;52.020;5.670;2023-02-02T02:49:10;101870.09;;;11.82;66.40
69624;BME280;56843;52.020;5.670;2023-02-02T02:50:42;101881.28;;;11.85;66.74
69624;BME280;56843;52.020;5.670;2023-02-02T02:52:12;101869.81;;;11.84;66.52
69624;BME280;56843;52.020;5.670;2023-02-02T02:53:43;101872.97;;;11.86;66.32
69624;BME280;56843;52.020;5.670;2023-02-02T02:55:13;101863.03;;;11.87;66.84
69624;BME280;56843;52.020;5.670;2023-02-02T02:57:17;101862.75;;;11.88;66.71
69624;BME280;56843;52.020;5.670;2023-02-02T02:58:59;101868.69;;;11.85;66.53
69624;BME280;56843;52.020;5.670;2023-02-02T03:00:47;101864.94;;;11.86;66.52
69624;BME280;56843;52.020;5.670;2023-02-02T03:04:07;101862.25;;;11.86;66.65
69624;BME280;56843;52.020;5.670;2023-02-02T03:05:48;101856.13;;;11.86;66.88
69624;BME280;56843;52.020;5.670;2023-02-02T03:07:28;101858.47;;;11.87;66.48
69624;BME280;56843;52.020;5.670;2023-02-02T03:09:05;101852.03;;;11.88;66.73
69624;BME280;56843;52.020;5.670;2023-02-02T03:10:39;101856.28;;;11.89;66.56
69624;BME280;56843;52.020;5.670;2023-02-02T03:12:12;101853.59;;;11.89;66.68
69624;BME280;56843;52.020;5.670;2023-02-02T03:13:43;101856.75;;;11.91;66.66
69624;BME280;56843;52.020;5.670;2023-02-02T03:15:14;101851.41;;;11.91;66.85
69624;BME280;56843;52.020;5.670;2023-02-02T03:16:45;101865.28;;;11.93;66.86
69624;BME280;56843;52.020;5.670;2023-02-02T03:18:18;101859.91;;;11.93;66.61
69624;BME280;56843;52.020;5.670;2023-02-02T03:19:49;101868.75;;;11.94;66.89
69624;BME280;56843;52.020;5.670;2023-02-02T03:21:19;101878.38;;;11.95;67.08
69624;BME280;56843;52.020;5.670;2023-02-02T03:22:50;101879.94;;;11.96;66.82
69624;BME280;56843;52.020;5.670;2023-02-02T03:24:20;101876.78;;;11.94;66.94
69624;BME280;56843;52.020;5.670;2023-02-02T03:25:51;101882.44;;;11.92;66.74
69624;BME280;56843;52.020;5.670;2023-02-02T03:27:22;101881.84;;;11.95;66.94
69624;BME280;56843;52.020;5.670;2023-02-02T03:28:54;101882.94;;;11.94;66.62
69624;BME280;56843;52.020;5.670;2023-02-02T03:30:26;101882.13;;;11.94;66.93
69624;BME280;56843;52.020;5.670;2023-02-02T03:31:56;101886.69;;;11.93;66.85
69624;BME280;56843;52.020;5.670;2023-02-02T03:33:27;101891.28;;;11.93;66.65
69624;BME280;56843;52.020;5.670;2023-02-02T03:34:59;101892.84;;;11.94;66.72
69624;BME280;56843;52.020;5.670;2023-02-02T03:36:29;101892.03;;;11.93;66.59
69624;BME280;56843;52.020;5.670;2023-02-02T03:38:00;101897.41;;;11.93;66.77
69624;BME280;56843;52.020;5.670;2023-02-02T03:39:30;101891.28;;;11.93;66.65
69624;BME280;56843;52.020;5.670;2023-02-02T03:41:01;101888.59;;;11.93;67.00
69624;BME280;56843;52.020;5.670;2023-02-02T03:42:31;101888.59;;;11.93;66.74
69624;BME280;56843;52.020;5.670;2023-02-02T03:44:02;101891.28;;;11.93;66.92
69624;BME280;56843;52.020;5.670;2023-02-02T03:45:32;101891.28;;;11.93;66.72
69624;BME280;56843;52.020;5.670;2023-02-02T03:47:06;101888.59;;;11.93;66.93
69624;BME280;56843;52.020;5.670;2023-02-02T03:48:37;101888.59;;;11.93;66.83
69624;BME280;56843;52.020;5.670;2023-02-02T03:50:08;101894.72;;;11.93;66.86
69624;BME280;56843;52.020;5.670;2023-02-02T03:51:39;101896.63;;;11.93;66.78
69624;BME280;56843;52.020;5.670;2023-02-02T03:53:09;101897.41;;;11.93;66.79
69624;BME280;56843;52.020;5.670;2023-02-02T03:54:40;101887.00;;;11.92;66.68
69624;BME280;56843;52.020;5.670;2023-02-02T03:56:10;101886.22;;;11.91;66.90
69624;BME280;56843;52.020;5.670;2023-02-02T03:57:41;101893.16;;;11.92;66.74
69624;BME280;56843;52.020;5.670;2023-02-02T03:59:11;101889.69;;;11.92;66.50
69624;BME280;56843;52.020;5.670;2023-02-02T04:00:42;101894.25;;;11.91;66.66
69624;BME280;56843;52.020;5.670;2023-02-02T04:02:12;101893.16;;;11.92;66.70
69624;BME280;56843;52.020;5.670;2023-02-02T04:03:43;101890.47;;;11.92;66.63
69624;BME280;56843;52.020;5.670;2023-02-02T04:05:15;101876.28;;;11.92;66.53
69624;BME280;56843;52.020;5.670;2023-02-02T04:06:46;101886.69;;;11.93;66.77
69624;BME280;56843;52.020;5.670;2023-02-02T04:08:16;101875.22;;;11.93;66.52
69624;BME280;56843;52.020;5.670;2023-02-02T04:09:47;101881.66;;;11.92;66.69
69624;BME280;56843;52.020;5.670;2023-02-02T04:11:17;101878.97;;;11.92;66.48
69624;BME280;56843;52.020;5.670;2023-02-02T04:12:48;101881.66;;;11.92;66.73
69624;BME280;56843;52.020;5.670;2023-02-02T04:14:18;101873.63;;;11.92;66.69
69624;BME280;56843;52.020;5.670;2023-02-02T04:15:59;101874.41;;;11.92;66.83
69624;BME280;56843;52.020;5.670;2023-02-02T04:17:30;101879.56;;;11.89;66.64
69624;BME280;56843;52.020;5.670;2023-02-02T04:19:00;101872.06;;;11.91;66.64
69624;BME280;56843;52.020;5.670;2023-02-02T04:20:30;101873.94;;;11.90;66.43
69624;BME280;56843;52.020;5.670;2023-02-02T04:22:01;101875.50;;;11.91;66.73
69624;BME280;56843;52.020;5.670;2023-02-02T04:23:32;101868.28;;;11.92;66.82
69624;BME280;56843;52.020;5.670;2023-02-02T04:25:02;101875.22;;;11.93;66.65
69624;BME280;56843;52.020;5.670;2023-02-02T04:26:33;101867.47;;;11.91;66.33
69624;BME280;56843;52.020;5.670;2023-02-02T04:28:04;101873.63;;;11.92;66.59
69624;BME280;56843;52.020;5.670;2023-02-02T04:29:34;101877.09;;;11.92;66.68
69624;BME280;56843;52.020;5.670;2023-02-02T04:31:05;101867.19;;;11.93;66.46
69624;BME280;56843;52.020;5.670;2023-02-02T04:32:35;101872.53;;;11.93;66.65
69624;BME280;56843;52.020;5.670;2023-02-02T04:34:06;101873.31;;;11.93;66.45
69624;BME280;56843;52.020;5.670;2023-02-02T04:35:36;101869.88;;;11.93;66.79
69624;BME280;56843;52.020;5.670;2023-02-02T04:37:07;101867.94;;;11.93;66.61
69624;BME280;56843;52.020;5.670;2023-02-02T04:38:37;101868.75;;;11.94;66.42
69624;BME280;56843;52.020;5.670;2023-02-02T04:40:08;101869.56;;;11.94;66.68
69624;BME280;56843;52.020;5.670;2023-02-02T04:41:39;101870.34;;;11.95;66.33
69624;BME280;56843;52.020;5.670;2023-02-02T04:43:10;101876.50;;;11.95;66.56
69624;BME280;56843;52.020;5.670;2023-02-02T04:44:41;101876.50;;;11.95;66.90
69624;BME280;56843;52.020;5.670;2023-02-02T04:46:13;101871.16;;;11.95;66.59
69624;BME280;56843;52.020;5.670;2023-02-02T04:47:44;101883.41;;;11.96;66.76
69624;BME280;56843;52.020;5.670;2023-02-02T04:49:14;101889.88;;;11.95;66.52
69624;BME280;56843;52.020;5.670;2023-02-02T04:50:45;101888.78;;;11.96;66.57
69624;BME280;56843;52.020;5.670;2023-02-02T04:52:15;101894.13;;;11.96;66.71
69624;BME280;56843;52.020;5.670;2023-02-02T04:53:46;101886.09;;;11.96;66.50
69624;BME280;56843;52.020;5.670;2023-02-02T04:55:16;101882.63;;;11.96;66.56
69624;BME280;56843;52.020;5.670;2023-02-02T04:56:47;101896.81;;;11.96;66.56
69624;BME280;56843;52.020;5.670;2023-02-02T04:58:17;101901.84;;;11.98;66.50
69624;BME280;56843;52.020;5.670;2023-02-02T04:59:48;101897.59;;;11.97;66.41
69624;BME280;56843;52.020;5.670;2023-02-02T05:01:19;101897.28;;;11.98;66.36
69624;BME280;56843;52.020;5.670;2023-02-02T05:02:50;101897.28;;;11.98;66.39
69624;BME280;56843;52.020;5.670;2023-02-02T05:04:20;101897.59;;;11.97;66.49
69624;BME280;56843;52.020;5.670;2023-02-02T05:05:51;101905.63;;;11.97;66.56
69624;BME280;56843;52.020;5.670;2023-02-02T05:07:29;101903.28;;;11.95;66.51
69624;BME280;56843;52.020;5.670;2023-02-02T05:09:00;101899.78;;;11.95;66.48
69624;BME280;56843;52.020;5.670;2023-02-02T05:10:30;101899.78;;;11.95;66.72
69624;BME280;56843;52.020;5.670;2023-02-02T05:12:01;101898.19;;;11.94;66.39
69624;BME280;56843;52.020;5.670;2023-02-02T05:13:31;101897.13;;;11.95;66.31
69624;BME280;56843;52.020;5.670;2023-02-02T05:15:02;101898.19;;;11.94;66.72
69624;BME280;56843;52.020;5.670;2023-02-02T05:16:34;101899.78;;;11.95;66.37
69624;BME280;56843;52.020;5.670;2023-02-02T05:18:05;101905.94;;;11.95;66.56
69624;BME280;56843;52.020;5.670;2023-02-02T05:19:35;101895.53;;;11.94;66.24
69624;BME280;56843;52.020;5.670;2023-02-02T05:21:06;101904.84;;;11.96;66.64
69624;BME280;56843;52.020;5.670;2023-02-02T05:22:36;101910.19;;;11.96;66.63
69624;BME280;56843;52.020;5.670;2023-02-02T05:24:07;101906.72;;;11.96;66.63
69624;BME280;56843;52.020;5.670;2023-02-02T05:25:37;101902.16;;;11.96;66.39
69624;BME280;56843;52.020;5.670;2023-02-02T05:27:08;101909.38;;;11.96;66.47
69624;BME280;56843;52.020;5.670;2023-02-02T05:28:38;101901.34;;;11.96;66.33
69624;BME280;56843;52.020;5.670;2023-02-02T05:30:12;101898.69;;;11.96;66.43
69624;BME280;56843;52.020;5.670;2023-02-02T05:31:43;101904.84;;;11.96;66.25
69624;BME280;56843;52.020;5.670;2023-02-02T05:33:14;101906.44;;;11.97;66.64
69624;BME280;56843;52.020;5.670;2023-02-02T05:34:45;101905.94;;;11.95;65.97
69624;BME280;56843;52.020;5.670;2023-02-02T05:36:16;101896.00;;;11.96;66.51
69624;BME280;56843;52.020;5.670;2023-02-02T05:37:46;101904.84;;;11.96;66.37
69624;BME280;56843;52.020;5.670;2023-02-02T05:39:17;101890.66;;;11.96;66.36
69624;BME280;56843;52.020;5.670;2023-02-02T05:40:48;101900.28;;;11.97;66.47
69624;BME280;56843;52.020;5.670;2023-02-02T05:42:18;101905.63;;;11.97;66.41
69624;BME280;56843;52.020;5.670;2023-02-02T05:43:49;101909.38;;;11.96;66.43
69624;BME280;56843;52.020;5.670;2023-02-02T05:45:19;101904.34;;;11.94;66.05
69624;BME280;56843;52.020;5.670;2023-02-02T05:46:50;101913.97;;;11.95;66.25
69624;BME280;56843;52.020;5.670;2023-02-02T05:48:20;101904.34;;;11.94;66.26
69624;BME280;56843;52.020;5.670;2023-02-02T05:49:51;101911.59;;;11.94;66.51
69624;BME280;56843;52.020;5.670;2023-02-02T05:51:28;101909.38;;;11.96;66.22
69624;BME280;56843;52.020;5.670;2023-02-02T05:52:58;101905.16;;;11.95;66.03
69624;BME280;56843;52.020;5.670;2023-02-02T05:54:29;101907.03;;;11.94;66.24
69624;BME280;56843;52.020;5.670;2023-02-02T05:56:00;101897.13;;;11.95;66.07
69624;BME280;56843;52.020;5.670;2023-02-02T05:57:31;101899.78;;;11.95;66.33
69624;BME280;56843;52.020;5.670;2023-02-02T05:59:01;101911.59;;;11.94;66.39
69624;BME280;56843;52.020;5.670;2023-02-02T06:00:36;101903.28;;;11.95;66.31
69624;BME280;56843;52.020;5.670;2023-02-02T06:02:07;101909.69;;;11.94;66.42
69624;BME280;56843;52.020;5.670;2023-02-02T06:03:37;101907.03;;;11.94;66.41
69624;BME280;56843;52.020;5.670;2023-02-02T06:05:08;101895.53;;;11.94;66.32
69624;BME280;56843;52.020;5.670;2023-02-02T06:06:39;101914.75;;;11.96;66.29
69624;BME280;56843;52.020;5.670;2023-02-02T06:08:09;101905.16;;;11.95;66.43
69624;BME280;56843;52.020;5.670;2023-02-02T06:09:40;101910.97;;;11.97;66.24
69624;BME280;56843;52.020;5.670;2023-02-02T06:11:12;101898.69;;;11.96;66.37
69624;BME280;56843;52.020;5.670;2023-02-02T06:12:42;101909.38;;;11.96;66.23
69624;BME280;56843;52.020;5.670;2023-02-02T06:14:13;101906.72;;;11.96;66.21
69624;BME280;56843;52.020;5.670;2023-02-02T06:15:43;101920.09;;;11.96;65.91
69624;BME280;56843;52.020;5.670;2023-02-02T06:17:14;101919.34;;;11.95;66.04
69624;BME280;56843;52.020;5.670;2023-02-02T06:18:44;101915.53;;;11.96;66.31
69624;BME280;56843;52.020;5.670;2023-02-02T06:20:16;101913.66;;;11.97;66.14
69624;BME280;56843;52.020;5.670;2023-02-02T06:21:47;101920.59;;;11.98;66.20
69624;BME280;56843;52.020;5.670;2023-02-02T06:23:17;101922.50;;;11.97;65.95
69624;BME280;56843;52.020;5.670;2023-02-02T06:24:48;101920.59;;;11.98;66.30
69624;BME280;56843;52.020;5.670;2023-02-02T06:26:18;101918.69;;;11.98;66.25
69624;BME280;56843;52.020;5.670;2023-02-02T06:27:49;101922.19;;;11.99;66.13
69624;BME280;56843;52.020;5.670;2023-02-02T06:29:19;101927.53;;;11.99;66.38
69624;BME280;56843;52.020;5.670;2023-02-02T06:30:50;101916.50;;;12.00;66.76
69624;BME280;56843;52.020;5.670;2023-02-02T06:32:21;101921.88;;;12.00;66.36
69624;BME280;56843;52.020;5.670;2023-02-02T06:33:54;101929.91;;;12.00;66.51
69624;BME280;56843;52.020;5.670;2023-02-02T06:35:25;101924.84;;;11.99;66.36
69624;BME280;56843;52.020;5.670;2023-02-02T06:36:55;101928.81;;;12.01;66.38
69624;BME280;56843;52.020;5.670;2023-02-02T06:38:26;101933.84;;;12.03;66.55
69624;BME280;56843;52.020;5.670;2023-02-02T06:39:57;101933.84;;;12.03;66.37
69624;BME280;56843;52.020;5.670;2023-02-02T06:41:27;101937.34;;;12.03;66.58
69624;BME280;56843;52.020;5.670;2023-02-02T06:42:59;101939.69;;;12.05;66.27
69624;BME280;56843;52.020;5.670;2023-02-02T06:44:30;101938.91;;;12.04;66.41
69624;BME280;56843;52.020;5.670;2023-02-02T06:46:00;101943.16;;;12.05;66.71
69624;BME280;56843;52.020;5.670;2023-02-02T06:47:32;101947.72;;;12.05;66.70
69624;BME280;56843;52.020;5.670;2023-02-02T06:49:02;101942.84;;;12.07;66.74
69624;BME280;56843;52.020;5.670;2023-02-02T06:50:33;101943.66;;;12.07;66.55
69624;BME280;56843;52.020;5.670;2023-02-02T06:52:03;101952.00;;;12.06;66.40
69624;BME280;56843;52.020;5.670;2023-02-02T06:53:34;101949.00;;;12.07;66.78
69624;BME280;56843;52.020;5.670;2023-02-02T06:55:05;101954.38;;;12.07;66.58
69624;BME280;56843;52.020;5.670;2023-02-02T06:56:36;101959.72;;;12.07;66.47
69624;BME280;56843;52.020;5.670;2023-02-02T06:58:06;101949.81;;;12.08;66.62
69624;BME280;56843;52.020;5.670;2023-02-02T06:59:37;101957.03;;;12.07;66.72
69624;BME280;56843;52.020;5.670;2023-02-02T07:01:11;101964.75;;;12.09;66.76
69624;BME280;56843;52.020;5.670;2023-02-02T07:02:45;101949.81;;;12.08;66.81
69624;BME280;56843;52.020;5.670;2023-02-02T07:04:17;101956.72;;;12.09;67.10
69624;BME280;56843;52.020;5.670;2023-02-02T07:05:48;101951.84;;;12.11;67.03
69624;BME280;56843;52.020;5.670;2023-02-02T07:07:18;101954.53;;;12.11;67.19
69624;BME280;56843;52.020;5.670;2023-02-02T07:08:50;101955.06;;;12.13;67.07
69624;BME280;56843;52.020;5.670;2023-02-02T07:10:20;101950.94;;;12.15;66.83
69624;BME280;56843;52.020;5.670;2023-02-02T07:11:51;101964.06;;;12.17;67.12
69624;BME280;56843;52.020;5.670;2023-02-02T07:13:21;101966.72;;;12.17;67.05
69624;BME280;56843;52.020;5.670;2023-02-02T07:14:52;101956.81;;;12.17;66.87
69624;BME280;56843;52.020;5.670;2023-02-02T07:16:23;101952.22;;;12.18;66.96
69624;BME280;56843;52.020;5.670;2023-02-02T07:17:53;101953.03;;;12.18;66.60
69624;BME280;56843;52.020;5.670;2023-02-02T07:19:24;101949.56;;;12.18;66.65
69624;BME280;56843;52.020;5.670;2023-02-02T07:20:57;101953.81;;;12.19;66.78
69624;BME280;56843;52.020;5.670;2023-02-02T07:22:29;101953.03;;;12.18;66.41
69624;BME280;56843;52.020;5.670;2023-02-02T07:24:00;101951.16;;;12.19;66.50
69624;BME280;56843;52.020;5.670;2023-02-02T07:25:31;101960.75;;;12.20;66.55
69624;BME280;56843;52.020;5.670;2023-02-02T07:27:02;101950.03;;;12.20;66.36
69624;BME280;56843;52.020;5.670;2023-02-02T07:28:33;101954.31;;;12.21;66.63
69624;BME280;56843;52.020;5.670;2023-02-02T07:30:04;101953.50;;;12.20;66.61
69624;BME280;56843;52.020;5.670;2023-02-02T07:31:34;101965.03;;;12.21;66.65
69624;BME280;56843;52.020;5.670;2023-02-02T07:33:05;101966.91;;;12.20;66.40
69624;BME280;56843;52.020;5.670;2023-02-02T07:34:37;101967.69;;;12.21;66.44
69624;BME280;56843;52.020;5.670;2023-02-02T07:36:09;101968.78;;;12.20;66.30
69624;BME280;56843;52.020;5.670;2023-02-02T07:37:40;101973.38;;;12.19;66.19
69624;BME280;56843;52.020;5.670;2023-02-02T07:39:10;101978.72;;;12.19;65.99
69624;BME280;56843;52.020;5.670;2023-02-02T07:40:41;101978.72;;;12.19;66.24
69624;BME280;56843;52.020;5.670;2023-02-02T07:42:12;101981.69;;;12.18;65.99
69624;BME280;56843;52.020;5.670;2023-02-02T07:43:47;101979.81;;;12.18;66.12
69624;BME280;56843;52.020;5.670;2023-02-02T07:45:17;101981.69;;;12.18;65.89
69624;BME280;56843;52.020;5.670;2023-02-02T07:46:48;101980.59;;;12.19;66.20
69624;BME280;56843;52.020;5.670;2023-02-02T07:48:18;101987.84;;;12.18;66.06
69624;BME280;56843;52.020;5.670;2023-02-02T07:49:49;101979.00;;;12.18;65.81
69624;BME280;56843;52.020;5.670;2023-02-02T07:51:20;101981.69;;;12.18;65.93
69624;BME280;56843;52.020;5.670;2023-02-02T07:52:51;101993.19;;;12.18;66.13
69624;BME280;56843;52.020;5.670;2023-02-02T07:54:22;101991.63;;;12.17;66.03
69624;BME280;56843;52.020;5.670;2023-02-02T07:55:52;101989.72;;;12.18;65.68
69624;BME280;56843;52.020;5.670;2023-02-02T07:57:24;101995.88;;;12.18;66.03
69624;BME280;56843;52.020;5.670;2023-02-02T07:58:55;101992.41;;;12.18;65.54
69624;BME280;56843;52.020;5.670;2023-02-02T08:00:26;101993.19;;;12.18;65.58
69624;BME280;56843;52.020;5.670;2023-02-02T08:01:56;101999.66;;;12.17;65.81
69624;BME280;56843;52.020;5.670;2023-02-02T08:03:28;102000.44;;;12.18;65.58
69624;BME280;56843;52.020;5.670;2023-02-02T08:04:59;102006.09;;;12.16;65.63
69624;BME280;56843;52.020;5.670;2023-02-02T08:06:32;102009.56;;;12.17;65.85
69624;BME280;56843;52.020;5.670;2023-02-02T08:08:03;102007.19;;;12.15;65.71
69624;BME280;56843;52.020;5.670;2023-02-02T08:09:34;102011.47;;;12.16;65.76
69624;BME280;56843;52.020;5.670;2023-02-02T08:11:07;102013.06;;;12.17;65.63
69624;BME280;56843;52.020;5.670;2023-02-02T08:12:39;102008.78;;;12.16;65.62
69624;BME280;56843;52.020;5.670;2023-02-02T08:14:11;102011.47;;;12.16;65.72
69624;BME280;56843;52.020;5.670;2023-02-02T08:15:42;102013.34;;;12.16;65.26
69624;BME280;56843;52.020;5.670;2023-02-02T08:17:13;102012.53;;;12.15;65.46
69624;BME280;56843;52.020;5.670;2023-02-02T08:18:43;102016.00;;;12.16;65.42
69624;BME280;56843;52.020;5.670;2023-02-02T08:20:14;102017.91;;;12.15;65.73
69624;BME280;56843;52.020;5.670;2023-02-02T08:21:45;102016.00;;;12.16;65.24